sensor_id;sensor_type;location;lat;lon;timestamp;temperature;humidity
18335;DHT22;9293;49.524;10.964;2022-12-07T00:01:43;3.30;99.90
18335;DHT22;9293;49.524;10.964;2022-12-07T00:04:13;3.30;99.90
18335;DHT22;9293;49.524;10.964;2022-12-07T00:06:46;3.30;99.90
18335;DHT22;9293;49.524;10.964;2022-12-07T00:09:19;3.30;99.90
18335;DHT22;9293;49.524;10.964;2022-12-07T00:11:51;3.30;99.90
18335;DHT22;9293;49.524;10.964;2022-12-07T00:14:19;3.30;99.90
18335;DHT22;9293;49.524;10.964;2022-12-07T00:16:51;3.30;99.90
18335;DHT22;9293;49.524;10.964;2022-12-07T00:19:20;3.20;99.90
18335;DHT22;9293;49.524;10.964;2022-12-07T00:21:48;3.20;99.90
18335;DHT22;9293;49.524;10.964;2022-12-07T00:24:16;3.20;99.90
18335;DHT22;9293;49.524;10.964;2022-12-07T00:26:44;3.30;99.90
18335;DHT22;9293;49.524;10.964;2022-12-07T00:29:18;3.30;99.90
18335;DHT22;9293;49.524;10.964;2022-12-07T00:31:47;3.20;99.90
18335;DHT22;9293;49.524;10.964;2022-12-07T00:34:18;3.20;99.90
18335;DHT22;9293;49.524;10.964;2022-12-07T00:36:47;3.20;99.90
18335;DHT22;9293;49.524;10.964;2022-12-07T00:39:16;3.20;99.90
18335;DHT22;9293;49.524;10.964;2022-12-07T00:41:44;3.20;99.90
18335;DHT22;9293;49.524;10.964;2022-12-07T00:44:13;3.20;99.90
18335;DHT22;9293;49.524;10.964;2022-12-07T00:46:41;3.20;99.90
18335;DHT22;9293;49.524;10.964;2022-12-07T00:49:09;3.20;99.90
18335;DHT22;9293;49.524;10.964;2022-12-07T00:51:37;3.10;99.90
18335;DHT22;9293;49.524;10.964;2022-12-07T00:54:05;3.20;99.90
18335;DHT22;9293;49.524;10.964;2022-12-07T00:56:33;3.20;99.90
18335;DHT22;9293;49.524;10.964;2022-12-07T00:59:03;3.20;99.90
18335;DHT22;9293;49.524;10.964;2022-12-07T01:01:34;3.20;99.90
18335;DHT22;9293;49.524;10.964;2022-12-07T01:04:03;3.20;99.90
18335;DHT22;9293;49.524;10.964;2022-12-07T01:06:31;3.20;99.90
18335;DHT22;9293;49.524;10.964;2022-12-07T01:09:00;3.20;99.90
18335;DHT22;9293;49.524;10.964;2022-12-07T01:11:29;3.20;99.90
18335;DHT22;9293;49.524;10.964;2022-12-07T01:13:59;3.20;99.90
18335;DHT22;9293;49.524;10.964;2022-12-07T01:16:32;3.20;99.90
18335;DHT22;9293;49.524;10.964;2022-12-07T01:19:07;3.20;99.90
18335;DHT22;9293;49.524;10.964;2022-12-07T01:21:36;3.20;99.90
18335;DHT22;9293;49.524;10.964;2022-12-07T01:24:07;3.20;99.90
18335;DHT22;9293;49.524;10.964;2022-12-07T01:26:37;3.20;99.90
18335;DHT22;9293;49.524;10.964;2022-12-07T01:29:05;3.20;99.90
18335;DHT22;9293;49.524;10.964;2022-12-07T01:31:33;3.20;99.90
18335;DHT22;9293;49.524;10.964;2022-12-07T01:34:01;3.20;99.90
18335;DHT22;9293;49.524;10.964;2022-12-07T01:36:32;3.20;99.90
18335;DHT22;9293;49.524;10.964;2022-12-07T01:39:04;3.20;99.90
18335;DHT22;9293;49.524;10.964;2022-12-07T01:41:35;3.10;99.90
18335;DHT22;9293;49.524;10.964;2022-12-07T01:44:27;3.20;99.90
18335;DHT22;9293;49.524;10.964;2022-12-07T01:46:59;3.20;99.90
18335;DHT22;9293;49.524;10.964;2022-12-07T01:49:31;3.10;99.90
18335;DHT22;9293;49.524;10.964;2022-12-07T01:54:48;3.20;99.90
18335;DHT22;9293;49.524;10.964;2022-12-07T01:57:17;3.20;99.90
18335;DHT22;9293;49.524;10.964;2022-12-07T01:59:47;3.20;99.90
18335;DHT22;9293;49.524;10.964;2022-12-07T02:02:24;3.10;99.90
18335;DHT22;9293;49.524;10.964;2022-12-07T02:04:54;3.10;99.90
18335;DHT22;9293;49.524;10.964;2022-12-07T02:07:24;3.20;99.90
18335;DHT22;9293;49.524;10.964;2022-12-07T02:09:52;3.20;99.90
18335;DHT22;9293;49.524;10.964;2022-12-07T02:12:21;3.20;99.90
18335;DHT22;9293;49.524;10.964;2022-12-07T02:14:50;3.10;99.90
18335;DHT22;9293;49.524;10.964;2022-12-07T02:17:27;3.10;99.90
18335;DHT22;9293;49.524;10.964;2022-12-07T02:26:42;3.10;99.90
18335;DHT22;9293;49.524;10.964;2022-12-07T02:29:13;3.10;99.90
18335;DHT22;9293;49.524;10.964;2022-12-07T02:31:49;3.10;99.90
18335;DHT22;9293;49.524;10.964;2022-12-07T02:37:00;3.00;99.90
18335;DHT22;9293;49.524;10.964;2022-12-07T02:39:51;3.00;99.90
18335;DHT22;9293;49.524;10.964;2022-12-07T02:42:33;3.00;99.90
18335;DHT22;9293;49.524;10.964;2022-12-07T02:45:05;3.00;99.90
18335;DHT22;9293;49.524;10.964;2022-12-07T02:47:35;3.00;99.90
18335;DHT22;9293;49.524;10.964;2022-12-07T02:50:05;3.00;99.90
18335;DHT22;9293;49.524;10.964;2022-12-07T02:52:34;2.90;99.90
18335;DHT22;9293;49.524;10.964;2022-12-07T02:55:02;2.90;99.90
18335;DHT22;9293;49.524;10.964;2022-12-07T03:00:31;2.80;99.90
18335;DHT22;9293;49.524;10.964;2022-12-07T03:03:12;2.80;99.90
18335;DHT22;9293;49.524;10.964;2022-12-07T03:05:53;2.80;99.90
18335;DHT22;9293;49.524;10.964;2022-12-07T03:08:49;2.80;99.90
18335;DHT22;9293;49.524;10.964;2022-12-07T03:11:29;2.80;99.90
18335;DHT22;9293;49.524;10.964;2022-12-07T03:14:04;2.70;99.90
18335;DHT22;9293;49.524;10.964;2022-12-07T03:17:00;2.60;99.90
18335;DHT22;9293;49.524;10.964;2022-12-07T03:19:31;2.60;99.90
18335;DHT22;9293;49.524;10.964;2022-12-07T03:22:09;2.60;99.90
18335;DHT22;9293;49.524;10.964;2022-12-07T03:24:50;2.60;99.90
18335;DHT22;9293;49.524;10.964;2022-12-07T03:27:22;2.60;99.90
18335;DHT22;9293;49.524;10.964;2022-12-07T03:29:59;2.60;99.90
18335;DHT22;9293;49.524;10.964;2022-12-07T03:40:37;2.60;99.90
18335;DHT22;9293;49.524;10.964;2022-12-07T03:43:07;2.50;99.90
18335;DHT22;9293;49.524;10.964;2022-12-07T03:45:39;2.60;99.90
18335;DHT22;9293;49.524;10.964;2022-12-07T03:48:34;2.50;99.90
18335;DHT22;9293;49.524;10.964;2022-12-07T03:51:23;2.40;99.90
18335;DHT22;9293;49.524;10.964;2022-12-07T03:54:02;2.40;99.90
18335;DHT22;9293;49.524;10.964;2022-12-07T03:56:34;2.40;99.90
18335;DHT22;9293;49.524;10.964;2022-12-07T03:59:03;2.40;99.90
18335;DHT22;9293;49.524;10.964;2022-12-07T04:01:31;2.30;99.90
18335;DHT22;9293;49.524;10.964;2022-12-07T04:03:59;2.30;99.90
18335;DHT22;9293;49.524;10.964;2022-12-07T04:06:27;2.30;99.90
18335;DHT22;9293;49.524;10.964;2022-12-07T04:08:55;2.30;99.90
18335;DHT22;9293;49.524;10.964;2022-12-07T04:11:23;2.20;99.90
18335;DHT22;9293;49.524;10.964;2022-12-07T04:13:51;2.20;99.90
18335;DHT22;9293;49.524;10.964;2022-12-07T04:16:41;2.10;99.90
18335;DHT22;9293;49.524;10.964;2022-12-07T04:19:12;2.00;99.90
18335;DHT22;9293;49.524;10.964;2022-12-07T04:21:40;2.00;99.90
18335;DHT22;9293;49.524;10.964;2022-12-07T04:24:08;2.00;99.90
18335;DHT22;9293;49.524;10.964;2022-12-07T04:26:36;2.10;99.90
18335;DHT22;9293;49.524;10.964;2022-12-07T04:29:04;2.10;99.90
18335;DHT22;9293;49.524;10.964;2022-12-07T04:31:34;2.10;99.90
18335;DHT22;9293;49.524;10.964;2022-12-07T04:34:02;2.20;99.90
18335;DHT22;9293;49.524;10.964;2022-12-07T04:36:31;2.10;99.90
18335;DHT22;9293;49.524;10.964;2022-12-07T04:38:59;2.20;99.90
18335;DHT22;9293;49.524;10.964;2022-12-07T04:41:27;2.10;99.90
18335;DHT22;9293;49.524;10.964;2022-12-07T04:44:00;2.10;99.90
18335;DHT22;9293;49.524;10.964;2022-12-07T04:46:31;2.10;99.90
18335;DHT22;9293;49.524;10.964;2022-12-07T04:48:59;2.20;99.90
18335;DHT22;9293;49.524;10.964;2022-12-07T04:51:28;2.20;99.90
18335;DHT22;9293;49.524;10.964;2022-12-07T04:53:57;2.30;99.90
18335;DHT22;9293;49.524;10.964;2022-12-07T04:56:25;2.30;99.90
18335;DHT22;9293;49.524;10.964;2022-12-07T04:58:54;2.30;99.90
18335;DHT22;9293;49.524;10.964;2022-12-07T05:01:22;2.40;99.90
18335;DHT22;9293;49.524;10.964;2022-12-07T05:03:51;2.40;99.90
18335;DHT22;9293;49.524;10.964;2022-12-07T05:06:19;2.30;99.90
18335;DHT22;9293;49.524;10.964;2022-12-07T05:08:47;2.30;99.90
18335;DHT22;9293;49.524;10.964;2022-12-07T05:11:15;2.30;99.90
18335;DHT22;9293;49.524;10.964;2022-12-07T05:14:03;2.40;99.90
18335;DHT22;9293;49.524;10.964;2022-12-07T05:16:32;2.40;99.90
18335;DHT22;9293;49.524;10.964;2022-12-07T05:19:00;2.40;99.90
18335;DHT22;9293;49.524;10.964;2022-12-07T05:21:28;2.40;99.90
18335;DHT22;9293;49.524;10.964;2022-12-07T05:23:56;2.40;99.90
18335;DHT22;9293;49.524;10.964;2022-12-07T05:26:28;2.40;99.90
18335;DHT22;9293;49.524;10.964;2022-12-07T05:28:59;2.40;99.90
18335;DHT22;9293;49.524;10.964;2022-12-07T05:31:27;2.50;99.90
18335;DHT22;9293;49.524;10.964;2022-12-07T05:33:56;2.50;99.90
18335;DHT22;9293;49.524;10.964;2022-12-07T05:36:24;2.50;99.90
18335;DHT22;9293;49.524;10.964;2022-12-07T05:38:52;2.50;99.90
18335;DHT22;9293;49.524;10.964;2022-12-07T05:41:20;2.50;99.90
18335;DHT22;9293;49.524;10.964;2022-12-07T05:44:06;2.50;99.90
18335;DHT22;9293;49.524;10.964;2022-12-07T05:46:34;2.60;99.90
18335;DHT22;9293;49.524;10.964;2022-12-07T05:49:02;2.50;99.90
18335;DHT22;9293;49.524;10.964;2022-12-07T05:51:31;2.60;99.90
18335;DHT22;9293;49.524;10.964;2022-12-07T05:53:59;2.60;99.90
18335;DHT22;9293;49.524;10.964;2022-12-07T05:56:27;2.60;99.90
18335;DHT22;9293;49.524;10.964;2022-12-07T05:58:55;2.60;99.90
18335;DHT22;9293;49.524;10.964;2022-12-07T06:01:41;2.60;99.90
18335;DHT22;9293;49.524;10.964;2022-12-07T06:04:09;2.60;99.90
18335;DHT22;9293;49.524;10.964;2022-12-07T06:06:37;2.50;99.90
18335;DHT22;9293;49.524;10.964;2022-12-07T06:09:06;2.50;99.90
18335;DHT22;9293;49.524;10.964;2022-12-07T06:11:34;2.60;99.90
18335;DHT22;9293;49.524;10.964;2022-12-07T06:14:24;2.60;99.90
18335;DHT22;9293;49.524;10.964;2022-12-07T06:16:52;2.60;99.90
18335;DHT22;9293;49.524;10.964;2022-12-07T06:19:20;2.60;99.90
18335;DHT22;9293;49.524;10.964;2022-12-07T06:21:48;2.60;99.90
18335;DHT22;9293;49.524;10.964;2022-12-07T06:24:17;2.50;99.90
18335;DHT22;9293;49.524;10.964;2022-12-07T06:26:45;2.50;99.90
18335;DHT22;9293;49.524;10.964;2022-12-07T06:29:14;2.50;99.90
18335;DHT22;9293;49.524;10.964;2022-12-07T06:31:42;2.50;99.90
18335;DHT22;9293;49.524;10.964;2022-12-07T06:34:13;2.50;99.90
18335;DHT22;9293;49.524;10.964;2022-12-07T06:36:42;2.50;99.90
18335;DHT22;9293;49.524;10.964;2022-12-07T06:39:10;2.50;99.90
18335;DHT22;9293;49.524;10.964;2022-12-07T06:41:39;2.50;99.90
18335;DHT22;9293;49.524;10.964;2022-12-07T06:44:07;2.50;99.90
18335;DHT22;9293;49.524;10.964;2022-12-07T06:46:35;2.50;99.90
18335;DHT22;9293;49.524;10.964;2022-12-07T06:49:04;2.60;99.90
18335;DHT22;9293;49.524;10.964;2022-12-07T06:51:33;2.60;99.90
18335;DHT22;9293;49.524;10.964;2022-12-07T06:54:04;2.60;99.90
18335;DHT22;9293;49.524;10.964;2022-12-07T06:56:33;2.70;99.90
18335;DHT22;9293;49.524;10.964;2022-12-07T06:59:04;2.60;99.90
18335;DHT22;9293;49.524;10.964;2022-12-07T07:01:34;2.60;99.90
18335;DHT22;9293;49.524;10.964;2022-12-07T07:04:03;2.60;99.90
18335;DHT22;9293;49.524;10.964;2022-12-07T07:06:31;2.60;99.90
18335;DHT22;9293;49.524;10.964;2022-12-07T07:08:59;2.60;99.90
18335;DHT22;9293;49.524;10.964;2022-12-07T07:11:28;2.60;99.90
18335;DHT22;9293;49.524;10.964;2022-12-07T07:13:56;2.60;99.90
18335;DHT22;9293;49.524;10.964;2022-12-07T07:16:30;2.60;99.90
18335;DHT22;9293;49.524;10.964;2022-12-07T07:18:59;2.70;99.90
18335;DHT22;9293;49.524;10.964;2022-12-07T07:21:27;2.60;99.90
18335;DHT22;9293;49.524;10.964;2022-12-07T07:23:55;2.60;99.90
18335;DHT22;9293;49.524;10.964;2022-12-07T07:26:24;2.60;99.90
18335;DHT22;9293;49.524;10.964;2022-12-07T07:28:55;2.60;99.90
18335;DHT22;9293;49.524;10.964;2022-12-07T07:31:26;2.60;99.90
18335;DHT22;9293;49.524;10.964;2022-12-07T07:33:57;2.60;99.90
18335;DHT22;9293;49.524;10.964;2022-12-07T07:36:26;2.70;99.90
18335;DHT22;9293;49.524;10.964;2022-12-07T07:38:54;2.70;99.90
18335;DHT22;9293;49.524;10.964;2022-12-07T07:41:21;2.70;99.90
18335;DHT22;9293;49.524;10.964;2022-12-07T07:43:49;2.70;99.90
18335;DHT22;9293;49.524;10.964;2022-12-07T07:46:17;2.80;99.90
18335;DHT22;9293;49.524;10.964;2022-12-07T07:48:45;2.80;99.90
18335;DHT22;9293;49.524;10.964;2022-12-07T07:51:13;2.80;99.90
18335;DHT22;9293;49.524;10.964;2022-12-07T07:53:41;2.90;99.90
18335;DHT22;9293;49.524;10.964;2022-12-07T07:56:09;2.90;99.90
18335;DHT22;9293;49.524;10.964;2022-12-07T07:58:37;2.90;99.90
18335;DHT22;9293;49.524;10.964;2022-12-07T08:01:07;3.00;99.90
18335;DHT22;9293;49.524;10.964;2022-12-07T08:03:36;3.00;99.90
18335;DHT22;9293;49.524;10.964;2022-12-07T08:06:04;3.00;99.90
18335;DHT22;9293;49.524;10.964;2022-12-07T08:08:32;3.00;99.90
18335;DHT22;9293;49.524;10.964;2022-12-07T08:11:00;3.00;99.90
18335;DHT22;9293;49.524;10.964;2022-12-07T08:13:29;3.10;99.90
18335;DHT22;9293;49.524;10.964;2022-12-07T08:15:58;3.10;99.90
18335;DHT22;9293;49.524;10.964;2022-12-07T08:18:26;3.10;99.90
18335;DHT22;9293;49.524;10.964;2022-12-07T08:20:59;3.10;99.90
18335;DHT22;9293;49.524;10.964;2022-12-07T08:23:29;3.10;99.90
18335;DHT22;9293;49.524;10.964;2022-12-07T08:26:07;3.10;99.90
18335;DHT22;9293;49.524;10.964;2022-12-07T08:28:36;3.20;99.90
18335;DHT22;9293;49.524;10.964;2022-12-07T08:31:14;3.20;99.90
18335;DHT22;9293;49.524;10.964;2022-12-07T08:33:43;3.20;99.90
18335;DHT22;9293;49.524;10.964;2022-12-07T08:36:12;3.30;99.90
18335;DHT22;9293;49.524;10.964;2022-12-07T08:38:41;3.30;99.90
18335;DHT22;9293;49.524;10.964;2022-12-07T08:41:29;3.20;99.90
18335;DHT22;9293;49.524;10.964;2022-12-07T08:43:57;3.30;99.90
18335;DHT22;9293;49.524;10.964;2022-12-07T08:49:09;3.30;99.90
18335;DHT22;9293;49.524;10.964;2022-12-07T08:51:40;3.40;99.90
18335;DHT22;9293;49.524;10.964;2022-12-07T08:54:11;3.40;99.90
18335;DHT22;9293;49.524;10.964;2022-12-07T08:56:41;3.40;99.90
18335;DHT22;9293;49.524;10.964;2022-12-07T08:59:14;3.40;99.90
18335;DHT22;9293;49.524;10.964;2022-12-07T09:01:47;3.40;99.90
18335;DHT22;9293;49.524;10.964;2022-12-07T09:04:16;3.40;99.90
18335;DHT22;9293;49.524;10.964;2022-12-07T09:06:44;3.30;99.90
18335;DHT22;9293;49.524;10.964;2022-12-07T09:09:14;3.30;99.90
18335;DHT22;9293;49.524;10.964;2022-12-07T09:11:42;3.30;99.90
18335;DHT22;9293;49.524;10.964;2022-12-07T09:14:12;3.30;99.90
18335;DHT22;9293;49.524;10.964;2022-12-07T09:16:41;3.30;99.90
18335;DHT22;9293;49.524;10.964;2022-12-07T09:19:09;3.30;99.90
18335;DHT22;9293;49.524;10.964;2022-12-07T09:21:37;3.50;99.90
18335;DHT22;9293;49.524;10.964;2022-12-07T09:24:06;3.50;99.90
18335;DHT22;9293;49.524;10.964;2022-12-07T09:26:35;3.50;99.90
18335;DHT22;9293;49.524;10.964;2022-12-07T09:29:04;3.50;99.90
18335;DHT22;9293;49.524;10.964;2022-12-07T09:31:32;3.50;99.90
18335;DHT22;9293;49.524;10.964;2022-12-07T09:34:03;3.50;99.90
18335;DHT22;9293;49.524;10.964;2022-12-07T09:36:33;3.40;99.90
18335;DHT22;9293;49.524;10.964;2022-12-07T09:39:03;3.50;99.90
18335;DHT22;9293;49.524;10.964;2022-12-07T09:41:33;3.50;99.90
18335;DHT22;9293;49.524;10.964;2022-12-07T09:44:18;3.50;99.90
18335;DHT22;9293;49.524;10.964;2022-12-07T09:46:47;3.50;99.90
18335;DHT22;9293;49.524;10.964;2022-12-07T09:49:21;3.50;99.90
18335;DHT22;9293;49.524;10.964;2022-12-07T09:54:41;3.60;99.90
18335;DHT22;9293;49.524;10.964;2022-12-07T09:57:12;3.60;99.90
18335;DHT22;9293;49.524;10.964;2022-12-07T09:59:41;3.60;99.90
18335;DHT22;9293;49.524;10.964;2022-12-07T10:05:10;3.70;99.90
18335;DHT22;9293;49.524;10.964;2022-12-07T10:07:48;3.80;99.90
18335;DHT22;9293;49.524;10.964;2022-12-07T10:10:31;3.90;99.90
18335;DHT22;9293;49.524;10.964;2022-12-07T10:13:07;3.90;99.90
18335;DHT22;9293;49.524;10.964;2022-12-07T10:15:57;4.00;99.90
18335;DHT22;9293;49.524;10.964;2022-12-07T10:18:41;4.00;99.90
18335;DHT22;9293;49.524;10.964;2022-12-07T10:33:57;4.00;99.90
18335;DHT22;9293;49.524;10.964;2022-12-07T10:36:34;4.00;99.90
18335;DHT22;9293;49.524;10.964;2022-12-07T10:39:14;4.10;99.90
18335;DHT22;9293;49.524;10.964;2022-12-07T10:42:00;4.10;99.90
18335;DHT22;9293;49.524;10.964;2022-12-07T10:44:31;4.00;99.90
18335;DHT22;9293;49.524;10.964;2022-12-07T10:47:17;4.10;99.90
18335;DHT22;9293;49.524;10.964;2022-12-07T10:52:45;4.10;99.90
18335;DHT22;9293;49.524;10.964;2022-12-07T11:03:31;4.10;99.90
18335;DHT22;9293;49.524;10.964;2022-12-07T11:06:33;4.10;99.90
18335;DHT22;9293;49.524;10.964;2022-12-07T11:09:36;4.10;99.90
18335;DHT22;9293;49.524;10.964;2022-12-07T11:12:36;4.10;99.90
18335;DHT22;9293;49.524;10.964;2022-12-07T11:15:24;4.10;99.90
18335;DHT22;9293;49.524;10.964;2022-12-07T11:26:16;4.20;99.90
18335;DHT22;9293;49.524;10.964;2022-12-07T11:32:05;4.20;99.90
18335;DHT22;9293;49.524;10.964;2022-12-07T11:35:08;4.20;99.90
18335;DHT22;9293;49.524;10.964;2022-12-07T11:37:38;4.20;99.90
18335;DHT22;9293;49.524;10.964;2022-12-07T11:40:17;4.30;99.90
18335;DHT22;9293;49.524;10.964;2022-12-07T11:45:33;4.30;99.90
18335;DHT22;9293;49.524;10.964;2022-12-07T11:50:55;4.20;99.90
18335;DHT22;9293;49.524;10.964;2022-12-07T11:56:14;4.30;99.90
18335;DHT22;9293;49.524;10.964;2022-12-07T12:22:39;4.30;99.90
18335;DHT22;9293;49.524;10.964;2022-12-07T12:25:23;4.20;99.90
18335;DHT22;9293;49.524;10.964;2022-12-07T12:27:55;4.20;99.90
18335;DHT22;9293;49.524;10.964;2022-12-07T12:30:38;4.20;99.90
18335;DHT22;9293;49.524;10.964;2022-12-07T12:33:46;4.20;99.90
18335;DHT22;9293;49.524;10.964;2022-12-07T12:47:41;4.10;99.90
18335;DHT22;9293;49.524;10.964;2022-12-07T12:50:19;4.10;99.90
18335;DHT22;9293;49.524;10.964;2022-12-07T12:52:55;4.20;99.90
18335;DHT22;9293;49.524;10.964;2022-12-07T12:55:47;4.10;99.90
18335;DHT22;9293;49.524;10.964;2022-12-07T12:58:28;4.20;99.90
18335;DHT22;9293;49.524;10.964;2022-12-07T13:04:58;4.10;99.90
18335;DHT22;9293;49.524;10.964;2022-12-07T13:07:11;4.10;99.90
18335;DHT22;9293;49.524;10.964;2022-12-07T13:09:44;4.10;99.90
18335;DHT22;9293;49.524;10.964;2022-12-07T13:12:15;4.20;99.90
18335;DHT22;9293;49.524;10.964;2022-12-07T13:14:58;4.10;99.90
18335;DHT22;9293;49.524;10.964;2022-12-07T13:19:59;4.20;99.90
18335;DHT22;9293;49.524;10.964;2022-12-07T13:25:07;4.10;99.90
18335;DHT22;9293;49.524;10.964;2022-12-07T13:27:42;4.10;99.90
18335;DHT22;9293;49.524;10.964;2022-12-07T13:30:22;4.20;99.90
18335;DHT22;9293;49.524;10.964;2022-12-07T13:32:56;4.20;99.90
18335;DHT22;9293;49.524;10.964;2022-12-07T13:35:37;4.20;99.90
18335;DHT22;9293;49.524;10.964;2022-12-07T13:38:17;4.10;99.90
18335;DHT22;9293;49.524;10.964;2022-12-07T13:41:04;4.10;99.90
18335;DHT22;9293;49.524;10.964;2022-12-07T13:46:24;4.10;99.90
18335;DHT22;9293;49.524;10.964;2022-12-07T13:48:54;4.10;99.90
18335;DHT22;9293;49.524;10.964;2022-12-07T13:51:27;4.10;99.90
18335;DHT22;9293;49.524;10.964;2022-12-07T13:54:06;4.10;99.90
18335;DHT22;9293;49.524;10.964;2022-12-07T13:56:38;4.20;99.90
18335;DHT22;9293;49.524;10.964;2022-12-07T13:59:18;4.20;99.90
18335;DHT22;9293;49.524;10.964;2022-12-07T14:01:51;4.20;99.90
18335;DHT22;9293;49.524;10.964;2022-12-07T14:04:33;4.30;99.90
18335;DHT22;9293;49.524;10.964;2022-12-07T14:10:02;4.20;99.90
18335;DHT22;9293;49.524;10.964;2022-12-07T14:12:32;4.20;99.90
18335;DHT22;9293;49.524;10.964;2022-12-07T14:15:22;4.20;99.90
18335;DHT22;9293;49.524;10.964;2022-12-07T14:17:54;4.20;99.90
18335;DHT22;9293;49.524;10.964;2022-12-07T14:20:39;4.20;99.90
18335;DHT22;9293;49.524;10.964;2022-12-07T14:23:26;4.00;99.90
18335;DHT22;9293;49.524;10.964;2022-12-07T14:26:11;4.00;99.90
18335;DHT22;9293;49.524;10.964;2022-12-07T14:28:40;3.90;99.90
18335;DHT22;9293;49.524;10.964;2022-12-07T14:31:17;3.70;99.90
18335;DHT22;9293;49.524;10.964;2022-12-07T14:34:00;3.60;99.90
18335;DHT22;9293;49.524;10.964;2022-12-07T14:36:29;3.60;99.90
18335;DHT22;9293;49.524;10.964;2022-12-07T14:38:58;3.50;99.90
18335;DHT22;9293;49.524;10.964;2022-12-07T14:41:27;3.40;99.90
18335;DHT22;9293;49.524;10.964;2022-12-07T14:44:15;3.40;99.90
18335;DHT22;9293;49.524;10.964;2022-12-07T14:46:57;3.30;99.90
18335;DHT22;9293;49.524;10.964;2022-12-07T14:49:46;3.20;99.90
18335;DHT22;9293;49.524;10.964;2022-12-07T14:52:21;3.10;99.90
18335;DHT22;9293;49.524;10.964;2022-12-07T14:57:52;3.10;99.90
18335;DHT22;9293;49.524;10.964;2022-12-07T15:00:24;3.00;99.90
18335;DHT22;9293;49.524;10.964;2022-12-07T15:02:54;3.10;99.90
18335;DHT22;9293;49.524;10.964;2022-12-07T15:05:23;3.20;99.90
18335;DHT22;9293;49.524;10.964;2022-12-07T15:07:53;3.20;99.90
18335;DHT22;9293;49.524;10.964;2022-12-07T15:10:28;3.20;99.90
18335;DHT22;9293;49.524;10.964;2022-12-07T15:13:07;3.20;99.90
18335;DHT22;9293;49.524;10.964;2022-12-07T15:15:55;3.20;99.90
18335;DHT22;9293;49.524;10.964;2022-12-07T15:18:24;3.20;99.90
18335;DHT22;9293;49.524;10.964;2022-12-07T15:20:54;3.20;99.90
18335;DHT22;9293;49.524;10.964;2022-12-07T15:23:22;3.20;99.90
18335;DHT22;9293;49.524;10.964;2022-12-07T15:25:52;3.20;99.90
18335;DHT22;9293;49.524;10.964;2022-12-07T15:28:21;3.20;99.90
18335;DHT22;9293;49.524;10.964;2022-12-07T15:30:52;3.30;99.90
18335;DHT22;9293;49.524;10.964;2022-12-07T15:33:22;3.40;99.90
18335;DHT22;9293;49.524;10.964;2022-12-07T15:35:52;3.40;99.90
18335;DHT22;9293;49.524;10.964;2022-12-07T15:38:20;3.40;99.90
18335;DHT22;9293;49.524;10.964;2022-12-07T15:41:10;3.30;99.90
18335;DHT22;9293;49.524;10.964;2022-12-07T15:43:38;3.30;99.90
18335;DHT22;9293;49.524;10.964;2022-12-07T15:46:35;3.40;99.90
18335;DHT22;9293;49.524;10.964;2022-12-07T15:49:05;3.50;99.90
18335;DHT22;9293;49.524;10.964;2022-12-07T15:51:33;3.50;99.90
18335;DHT22;9293;49.524;10.964;2022-12-07T15:54:01;3.50;99.90
18335;DHT22;9293;49.524;10.964;2022-12-07T15:56:29;3.50;99.90
18335;DHT22;9293;49.524;10.964;2022-12-07T15:58:58;3.50;99.90
18335;DHT22;9293;49.524;10.964;2022-12-07T16:01:26;3.60;99.90
18335;DHT22;9293;49.524;10.964;2022-12-07T16:03:54;3.60;99.90
18335;DHT22;9293;49.524;10.964;2022-12-07T16:06:22;3.60;99.90
18335;DHT22;9293;49.524;10.964;2022-12-07T16:08:50;3.60;99.90
18335;DHT22;9293;49.524;10.964;2022-12-07T16:11:18;3.70;99.90
18335;DHT22;9293;49.524;10.964;2022-12-07T16:13:46;3.70;99.90
18335;DHT22;9293;49.524;10.964;2022-12-07T16:16:15;3.70;99.90
18335;DHT22;9293;49.524;10.964;2022-12-07T16:18:46;3.70;99.90
18335;DHT22;9293;49.524;10.964;2022-12-07T16:21:14;3.70;99.90
18335;DHT22;9293;49.524;10.964;2022-12-07T16:23:50;3.60;99.90
18335;DHT22;9293;49.524;10.964;2022-12-07T16:26:20;3.60;99.90
18335;DHT22;9293;49.524;10.964;2022-12-07T16:28:49;3.60;99.90
18335;DHT22;9293;49.524;10.964;2022-12-07T16:31:20;3.50;99.90
18335;DHT22;9293;49.524;10.964;2022-12-07T16:33:49;3.50;99.90
18335;DHT22;9293;49.524;10.964;2022-12-07T16:36:17;3.50;99.90
18335;DHT22;9293;49.524;10.964;2022-12-07T16:39:08;3.50;99.90
18335;DHT22;9293;49.524;10.964;2022-12-07T16:41:36;3.50;99.90
18335;DHT22;9293;49.524;10.964;2022-12-07T16:44:07;3.50;99.90
18335;DHT22;9293;49.524;10.964;2022-12-07T16:46:35;3.40;99.90
18335;DHT22;9293;49.524;10.964;2022-12-07T16:49:04;3.40;99.90
18335;DHT22;9293;49.524;10.964;2022-12-07T16:51:32;3.40;99.90
18335;DHT22;9293;49.524;10.964;2022-12-07T16:54:03;3.40;99.90
18335;DHT22;9293;49.524;10.964;2022-12-07T16:56:31;3.40;99.90
18335;DHT22;9293;49.524;10.964;2022-12-07T16:58:59;3.30;99.90
18335;DHT22;9293;49.524;10.964;2022-12-07T17:01:27;3.40;99.90
18335;DHT22;9293;49.524;10.964;2022-12-07T17:03:57;3.40;99.90
18335;DHT22;9293;49.524;10.964;2022-12-07T17:06:26;3.40;99.90
18335;DHT22;9293;49.524;10.964;2022-12-07T17:08:56;3.30;99.90
18335;DHT22;9293;49.524;10.964;2022-12-07T17:11:27;3.30;99.90
18335;DHT22;9293;49.524;10.964;2022-12-07T17:13:55;3.30;99.90
18335;DHT22;9293;49.524;10.964;2022-12-07T17:16:42;3.30;99.90
18335;DHT22;9293;49.524;10.964;2022-12-07T17:19:13;3.30;99.90
18335;DHT22;9293;49.524;10.964;2022-12-07T17:21:42;3.30;99.90
18335;DHT22;9293;49.524;10.964;2022-12-07T17:24:13;3.30;99.90
18335;DHT22;9293;49.524;10.964;2022-12-07T17:26:43;3.30;99.90
18335;DHT22;9293;49.524;10.964;2022-12-07T17:29:17;3.30;99.90
18335;DHT22;9293;49.524;10.964;2022-12-07T17:31:47;3.30;99.90
18335;DHT22;9293;49.524;10.964;2022-12-07T17:34:18;3.30;99.90
18335;DHT22;9293;49.524;10.964;2022-12-07T17:36:46;3.20;99.90
18335;DHT22;9293;49.524;10.964;2022-12-07T17:39:16;3.20;99.90
18335;DHT22;9293;49.524;10.964;2022-12-07T17:41:45;3.10;99.90
18335;DHT22;9293;49.524;10.964;2022-12-07T17:44:32;3.10;99.90
18335;DHT22;9293;49.524;10.964;2022-12-07T17:47:00;3.10;99.90
18335;DHT22;9293;49.524;10.964;2022-12-07T17:49:30;3.10;99.90
18335;DHT22;9293;49.524;10.964;2022-12-07T17:51:58;3.10;99.90
18335;DHT22;9293;49.524;10.964;2022-12-07T17:54:45;3.10;99.90
18335;DHT22;9293;49.524;10.964;2022-12-07T17:57:13;3.00;99.90
18335;DHT22;9293;49.524;10.964;2022-12-07T17:59:41;3.10;99.90
18335;DHT22;9293;49.524;10.964;2022-12-07T18:02:09;3.10;99.90
18335;DHT22;9293;49.524;10.964;2022-12-07T18:04:38;3.10;99.90
18335;DHT22;9293;49.524;10.964;2022-12-07T18:07:13;3.10;99.90
18335;DHT22;9293;49.524;10.964;2022-12-07T18:09:44;3.10;99.90
18335;DHT22;9293;49.524;10.964;2022-12-07T18:12:12;3.10;99.90
18335;DHT22;9293;49.524;10.964;2022-12-07T18:14:40;3.10;99.90
18335;DHT22;9293;49.524;10.964;2022-12-07T18:17:08;3.10;99.90
18335;DHT22;9293;49.524;10.964;2022-12-07T18:19:36;3.10;99.90
18335;DHT22;9293;49.524;10.964;2022-12-07T18:22:04;3.10;99.90
18335;DHT22;9293;49.524;10.964;2022-12-07T18:24:32;3.20;99.90
18335;DHT22;9293;49.524;10.964;2022-12-07T18:27:04;3.20;99.90